Weather at Quiché Airport

Public forecast

Using degrees Celsius for public forecast. Weather courtesy of forecast.io.

Closest aviation weather report (METAR) to Quiché Airport

Report is more than 2 hours old.

Closest report is Quezaltenango Airport, 22.2 nm (41.1 km) WSW. Retrieved 2022/08/18 00:00 UTC (5 hours ago):

MGQZ 180000Z 14004KT 9999 SCT020 FEW025CB BKN080 17/14 QFE 7725 CB/PCPN NE/E/SE

Closest aviation forecast (TAF) to Quiché Airport

Closest forecast is La Aurora Airport, 44.4 nm (82.2 km) SE. Retrieved 2022-08-18 00:48 UTC (4 hours ago):

TAF MGGT 172300Z 1800/1900 03008KT 9999 SCT016 SCT080 TX25/1820Z TN17/1812Z TEMPO 1800/1806 18006KT 7000 TSRA FEW025CB PROB40 TEMPO 1806/1816 VRB03KT 5000 BRDZ SCT012 BECMG 1816/1818 18008KT SCT018 TEMPO 1818/1900 8000 TSRA SCT020TCU FEW025CB